createdAt,value
2022-08-23T00:02:02.490Z,101475.28
2022-08-23T00:04:35.186Z,101474.41
2022-08-23T00:07:06.737Z,101465.53
2022-08-23T00:09:36.485Z,101469.09
2022-08-23T00:12:11.183Z,101465.53
2022-08-23T00:14:46.903Z,101468.19
2022-08-23T00:17:33.254Z,101466.38
2022-08-23T00:20:04.487Z,101459.28
2022-08-23T00:22:34.221Z,101454.81
2022-08-23T00:25:04.079Z,101453.91
2022-08-23T00:27:34.164Z,101453.91
2022-08-23T00:30:10.992Z,101456.59
2022-08-23T00:32:42.208Z,101447.69
2022-08-23T00:35:26.473Z,101447.69
2022-08-23T00:38:31.796Z,101444.13
2022-08-23T00:40:51.242Z,101446.75
2022-08-23T00:43:38.197Z,101443.22
2022-08-23T00:46:35.274Z,101446.75
2022-08-23T00:49:09.981Z,101441.41
2022-08-23T00:51:53.302Z,101438.72
2022-08-23T00:54:25.222Z,101441.41
2022-08-23T00:56:56.477Z,101432.47
2022-08-23T00:59:26.748Z,101431.56
2022-08-23T01:01:59.810Z,101426.25
2022-08-23T01:04:31.875Z,101430.69
2022-08-23T01:07:06.888Z,101428.00
2022-08-23T01:09:36.719Z,101428.84
2022-08-23T01:12:11.105Z,101421.69
2022-08-23T01:14:44.261Z,101423.47
2022-08-23T01:17:20.960Z,101429.69
2022-08-23T01:19:55.118Z,101430.56
2022-08-23T01:22:30.268Z,101430.53
2022-08-23T01:25:07.451Z,101433.22
2022-08-23T01:27:39.309Z,101441.19
2022-08-23T01:30:13.079Z,101434.09
2022-08-23T01:32:47.598Z,101445.63
2022-08-23T01:35:18.771Z,101442.06
2022-08-23T01:37:49.383Z,101444.72
2022-08-23T01:40:21.900Z,101441.16
2022-08-23T01:42:51.651Z,101434.03
2022-08-23T01:45:21.620Z,101438.44
2022-08-23T01:47:51.358Z,101435.78
2022-08-23T01:50:21.231Z,101442.00
2022-08-23T01:52:51.297Z,101449.09
2022-08-23T01:55:24.625Z,101445.50
2022-08-23T01:57:58.034Z,101447.28
2022-08-23T02:00:32.958Z,101441.03
2022-08-23T02:03:03.160Z,101444.56
2022-08-23T02:05:33.552Z,101443.69
2022-08-23T02:08:23.930Z,101442.78
2022-08-23T02:10:56.963Z,101440.97
2022-08-23T02:13:27.240Z,101436.50
2022-08-23T02:15:58.558Z,101440.03
2022-08-23T02:18:29.030Z,101432.00
2022-08-23T02:20:58.800Z,101433.75
2022-08-23T02:23:29.079Z,101435.53
2022-08-23T02:26:01.402Z,101433.75
2022-08-23T02:28:31.112Z,101441.75
2022-08-23T02:31:00.840Z,101437.34
2022-08-23T02:33:32.236Z,101439.13
2022-08-23T02:36:02.007Z,101433.75
2022-08-23T02:38:32.148Z,101438.19
2022-08-23T02:41:04.517Z,101432.84
2022-08-23T02:43:38.283Z,101437.28
2022-08-23T02:46:10.559Z,101435.50
2022-08-23T02:48:40.399Z,101438.16
2022-08-23T02:51:11.915Z,101429.28
2022-08-23T02:53:41.785Z,101440.84
2022-08-23T02:56:21.155Z,101437.28
2022-08-23T02:58:54.205Z,101444.38
2022-08-23T03:01:27.640Z,101439.03
2022-08-23T03:03:58.030Z,101443.44
2022-08-23T03:06:27.888Z,101436.31
2022-08-23T03:08:58.753Z,101443.44
2022-08-23T03:11:31.096Z,101442.53
2022-08-23T03:14:01.430Z,101440.75
2022-08-23T03:16:31.512Z,101436.25
2022-08-23T03:19:02.384Z,101428.22
2022-08-23T03:21:32.505Z,101432.69
2022-08-23T03:24:05.704Z,101426.47
2022-08-23T03:26:40.703Z,101431.81
2022-08-23T03:29:10.402Z,101423.84
2022-08-23T03:31:40.176Z,101427.34
2022-08-23T03:34:10.992Z,101433.63
2022-08-23T03:36:40.915Z,101427.38
2022-08-23T03:39:10.744Z,101430.03
2022-08-23T03:41:43.135Z,101422.00
2022-08-23T03:44:12.969Z,101423.75
2022-08-23T03:46:42.760Z,101426.44
2022-08-23T03:49:12.665Z,101428.19
2022-08-23T03:51:42.500Z,101433.50
2022-08-23T03:54:12.268Z,101440.56
2022-08-23T03:56:54.170Z,101434.31
2022-08-23T03:59:24.205Z,101436.06
2022-08-23T04:01:53.947Z,101443.16
2022-08-23T04:04:23.793Z,101438.72
2022-08-23T04:06:53.531Z,101442.28
2022-08-23T04:09:23.258Z,101438.72
2022-08-23T04:11:55.583Z,101445.81
2022-08-23T04:14:25.564Z,101452.88
2022-08-23T04:16:55.828Z,101452.88
2022-08-23T04:19:26.163Z,101447.56
2022-08-23T04:21:56.236Z,101441.31
2022-08-23T04:24:26.020Z,101443.09
2022-08-23T04:26:58.383Z,101449.28
2022-08-23T04:29:34.364Z,101436.88
2022-08-23T04:32:05.651Z,101441.31
2022-08-23T04:34:40.079Z,101446.63
2022-08-23T04:37:09.964Z,101442.16
2022-08-23T04:40:01.550Z,101444.81
2022-08-23T04:42:31.396Z,101443.94
2022-08-23T04:45:01.442Z,101446.56
2022-08-23T04:47:31.168Z,101448.38
2022-08-23T04:50:00.916Z,101459.03
2022-08-23T04:52:30.758Z,101454.63
2022-08-23T04:55:00.486Z,101459.22
2022-08-23T04:57:32.957Z,101457.63
2022-08-23T05:00:02.691Z,101460.47
2022-08-23T05:02:32.430Z,101458.00
2022-08-23T05:05:02.840Z,101465.25
2022-08-23T05:07:42.061Z,101466.34
2022-08-23T05:10:15.141Z,101467.34
2022-08-23T05:12:48.148Z,101470.13
2022-08-23T05:15:17.889Z,101471.94
2022-08-23T05:17:47.617Z,101464.88
2022-08-23T05:20:17.382Z,101468.44
2022-08-23T05:22:47.344Z,101468.44
2022-08-23T05:25:17.104Z,101467.56
2022-08-23T05:27:49.513Z,101480.00
2022-08-23T05:30:19.237Z,101473.72
2022-08-23T05:32:49.377Z,101474.59
2022-08-23T05:35:19.373Z,101480.75
2022-08-23T05:37:49.171Z,101483.41
2022-08-23T05:40:19.077Z,101494.94
2022-08-23T05:42:51.452Z,101491.38
2022-08-23T05:45:21.433Z,101506.47
2022-08-23T05:47:51.696Z,101502.03
2022-08-23T05:50:25.501Z,101497.53
2022-08-23T05:52:55.367Z,101505.56
2022-08-23T05:55:34.947Z,101510.91
2022-08-23T05:58:07.588Z,101505.56
2022-08-23T06:00:40.551Z,101507.34
2022-08-23T06:03:10.620Z,101507.38
2022-08-23T06:05:43.547Z,101508.31
2022-08-23T06:08:13.273Z,101513.69
2022-08-23T06:10:43.132Z,101511.03
2022-08-23T06:13:15.608Z,101510.22
2022-08-23T06:15:46.297Z,101504.00
2022-08-23T06:18:16.972Z,101500.53
2022-08-23T06:20:46.800Z,101513.94
2022-08-23T06:23:16.594Z,101504.16
2022-08-23T06:25:46.332Z,101507.75
2022-08-23T06:28:18.818Z,101500.63
2022-08-23T06:30:57.676Z,101506.03
2022-08-23T06:33:29.056Z,101490.81
2022-08-23T06:36:06.501Z,101498.81
2022-08-23T06:38:37.148Z,101501.47
2022-08-23T06:41:09.752Z,101500.53
2022-08-23T06:43:43.215Z,101493.38
2022-08-23T06:46:14.597Z,101496.84
2022-08-23T06:48:47.333Z,101498.59
2022-08-23T06:51:22.215Z,101500.38
2022-08-23T06:53:55.235Z,101499.44
2022-08-23T06:56:25.558Z,101498.44
2022-08-23T06:58:58.528Z,101500.16
2022-08-23T07:01:49.194Z,101497.28
2022-08-23T07:04:21.496Z,101495.31
2022-08-23T07:06:51.279Z,101500.41
2022-08-23T07:09:21.500Z,101503.84
2022-08-23T07:11:51.472Z,101500.94
2022-08-23T07:14:25.048Z,101493.56
2022-08-23T07:16:57.223Z,101494.22
2022-08-23T07:19:30.787Z,101499.28
2022-08-23T07:22:01.487Z,101499.88
2022-08-23T07:24:33.649Z,101500.38
2022-08-23T07:27:07.153Z,101500.09
2022-08-23T07:29:40.134Z,101495.16
2022-08-23T07:32:10.809Z,101504.63
2022-08-23T07:34:40.631Z,101504.28
2022-08-23T07:37:11.241Z,101503.88
2022-08-23T07:39:46.113Z,101512.53
2022-08-23T07:42:22.688Z,101512.25
2022-08-23T07:44:55.771Z,101517.19
2022-08-23T07:47:28.553Z,101525.75
2022-08-23T07:49:58.408Z,101515.41
2022-08-23T07:52:28.247Z,101521.38
2022-08-23T07:54:57.989Z,101520.03
2022-08-23T07:57:29.440Z,101534.91
2022-08-23T08:00:01.756Z,101535.34
2022-08-23T08:02:31.524Z,101533.22
2022-08-23T08:05:01.289Z,101535.66
2022-08-23T08:07:31.632Z,101535.25
2022-08-23T08:10:06.140Z,101532.16
2022-08-23T08:12:36.126Z,101531.78
2022-08-23T08:15:09.457Z,101526.09
2022-08-23T08:17:39.190Z,101530.28
2022-08-23T08:20:10.160Z,101540.03
2022-08-23T08:22:40.533Z,101534.66
2022-08-23T08:25:13.243Z,101542.00
2022-08-23T08:27:43.793Z,101533.91
2022-08-23T08:30:17.163Z,101531.16
2022-08-23T08:32:47.547Z,101536.38
2022-08-23T08:35:17.369Z,101536.22
2022-08-23T08:37:47.280Z,101546.00
2022-08-23T08:40:23.413Z,101544.06
2022-08-23T08:43:10.016Z,101547.66
2022-08-23T08:45:58.888Z,101550.41
2022-08-23T08:48:30.975Z,101547.72
2022-08-23T08:51:04.635Z,101553.94
2022-08-23T08:53:40.387Z,101556.50
2022-08-23T08:56:21.511Z,101546.53
2022-08-23T08:58:56.452Z,101547.44
2022-08-23T09:01:29.772Z,101549.28
2022-08-23T09:04:00.515Z,101547.66
2022-08-23T09:06:36.825Z,101546.00
2022-08-23T09:09:18.237Z,101539.06
2022-08-23T09:12:08.444Z,101537.47
2022-08-23T09:14:52.487Z,101546.69
2022-08-23T09:17:34.918Z,101553.16
2022-08-23T09:20:07.584Z,101545.09
2022-08-23T09:22:42.356Z,101541.59
2022-08-23T09:25:13.582Z,101534.41
2022-08-23T09:27:45.821Z,101531.84
2022-08-23T09:30:19.404Z,101532.75
2022-08-23T09:32:52.452Z,101531.88
2022-08-23T09:35:25.049Z,101532.75
2022-08-23T09:38:00.659Z,101524.50
2022-08-23T09:40:41.330Z,101521.69
2022-08-23T09:43:16.642Z,101523.44
2022-08-23T09:45:59.104Z,101522.41
2022-08-23T09:48:40.487Z,101512.47
2022-08-23T09:51:20.405Z,101516.13
2022-08-23T09:53:53.553Z,101509.66
2022-08-23T09:56:27.622Z,101510.50
2022-08-23T09:58:57.677Z,101502.34
2022-08-23T10:01:29.723Z,101504.13
2022-08-23T10:04:17.893Z,101501.38
2022-08-23T10:06:48.945Z,101500.28
2022-08-23T10:09:28.042Z,101498.34
2022-08-23T10:12:00.147Z,101494.81
2022-08-23T10:14:33.981Z,101497.44
2022-08-23T10:17:13.016Z,101506.09
2022-08-23T10:19:56.687Z,101504.09
2022-08-23T10:22:29.869Z,101502.06
2022-08-23T10:25:08.784Z,101499.97
2022-08-23T10:28:00.925Z,101503.38
2022-08-23T10:30:39.669Z,101504.06
2022-08-23T10:33:18.506Z,101498.47
2022-08-23T10:35:59.667Z,101503.06
2022-08-23T10:38:41.351Z,101494.88
2022-08-23T10:41:46.916Z,101502.09
2022-08-23T10:44:33.284Z,101497.53
2022-08-23T10:47:22.448Z,101495.88
2022-08-23T10:49:55.898Z,101499.44
2022-08-23T10:52:34.707Z,101501.97
2022-08-23T10:55:17.664Z,101502.84
2022-08-23T10:57:51.418Z,101499.09
2022-08-23T11:00:24.527Z,101500.75
2022-08-23T11:03:02.354Z,101503.28
2022-08-23T11:05:35.444Z,101492.34
2022-08-23T11:08:11.381Z,101495.06
2022-08-23T11:10:56.006Z,101503.28
2022-08-23T11:13:29.499Z,101506.91
2022-08-23T11:16:02.412Z,101498.88
2022-08-23T11:18:43.473Z,101492.50
2022-08-23T11:21:44.500Z,101492.50
2022-08-23T11:24:57.611Z,101496.22
2022-08-23T11:27:36.900Z,101499.88
2022-08-23T11:30:39.501Z,101503.44
2022-08-23T11:33:19.540Z,101496.91
2022-08-23T11:39:27.053Z,101494.22
2022-08-23T11:42:09.218Z,101505.97
2022-08-23T11:44:44.141Z,101499.47
2022-08-23T11:47:14.509Z,101499.19
2022-08-23T11:50:00.355Z,101503.47
2022-08-23T11:52:54.057Z,101501.63
2022-08-23T11:55:57.931Z,101507.81
2022-08-23T11:58:37.567Z,101498.66
2022-08-23T12:01:10.116Z,101496.72
2022-08-23T12:03:55.872Z,101503.81
2022-08-23T12:06:50.875Z,101494.66
2022-08-23T12:10:03.408Z,101495.41
2022-08-23T12:12:42.782Z,101496.28
2022-08-23T12:15:15.618Z,101495.28
2022-08-23T12:18:14.693Z,101496.84
2022-08-23T12:20:48.508Z,101496.63
2022-08-23T12:23:23.952Z,101496.50
2022-08-23T12:26:06.096Z,101491.78
2022-08-23T12:28:45.897Z,101493.47
2022-08-23T12:31:32.986Z,101494.34
2022-08-23T12:34:18.399Z,101497.03
2022-08-23T12:36:57.159Z,101492.50
2022-08-23T12:39:32.344Z,101498.94
2022-08-23T12:42:08.316Z,101497.22
2022-08-23T12:44:40.699Z,101496.50
2022-08-23T12:47:17.425Z,101501.09
2022-08-23T12:49:59.272Z,101502.13
2022-08-23T12:52:31.598Z,101504.97
2022-08-23T12:55:01.649Z,101513.19
2022-08-23T12:57:38.484Z,101495.06
2022-08-23T13:00:22.436Z,101509.47
2022-08-23T13:02:59.021Z,101502.38
2022-08-23T13:05:37.103Z,101497.94
2022-08-23T13:08:11.380Z,101493.66
2022-08-23T13:10:43.811Z,101496.41
2022-08-23T13:13:16.029Z,101508.13
2022-08-23T13:15:52.509Z,101499.06
2022-08-23T13:18:35.456Z,101500.81
2022-08-23T13:21:22.686Z,101492.69
2022-08-23T13:23:52.564Z,101498.13
2022-08-23T13:26:31.857Z,101490.81
2022-08-23T13:29:11.141Z,101487.22
2022-08-23T13:32:03.336Z,101483.63
2022-08-23T13:34:46.990Z,101489.06
2022-08-23T13:37:23.213Z,101485.28
2022-08-23T13:39:56.083Z,101481.72
2022-08-23T13:42:35.856Z,101480.97
2022-08-23T13:45:16.264Z,101488.44
2022-08-23T13:47:54.860Z,101493.25
2022-08-23T13:50:28.094Z,101490.78
2022-08-23T13:55:51.921Z,101498.16
2022-08-23T13:58:31.525Z,101487.38
2022-08-23T14:01:03.664Z,101501.13
2022-08-23T14:03:36.015Z,101495.78
2022-08-23T14:06:05.758Z,101491.44
2022-08-23T14:08:35.475Z,101498.78
2022-08-23T14:11:05.921Z,101506.19
2022-08-23T14:13:37.389Z,101503.63
2022-08-23T14:20:31.508Z,101513.00
2022-08-23T14:21:54.281Z,101507.91
2022-08-23T14:24:26.960Z,101507.22
2022-08-23T14:26:57.557Z,101509.91
2022-08-23T14:29:30.748Z,101500.06
2022-08-23T14:32:01.912Z,101507.44
2022-08-23T14:34:34.364Z,101511.13
2022-08-23T14:39:54.161Z,101499.00
2022-08-23T14:42:25.632Z,101500.97
2022-08-23T14:44:55.352Z,101496.53
2022-08-23T14:47:25.179Z,101494.00
2022-08-23T14:49:57.589Z,101492.31
2022-08-23T14:52:27.457Z,101494.28
2022-08-23T14:54:57.211Z,101497.09
2022-08-23T14:57:26.944Z,101492.78
2022-08-23T14:59:59.086Z,101497.38
2022-08-23T15:02:30.368Z,101491.09
2022-08-23T15:05:02.728Z,101489.31
2022-08-23T15:07:32.498Z,101490.22
2022-08-23T15:10:02.226Z,101493.91
2022-08-23T15:15:23.322Z,101496.16
2022-08-23T15:17:57.317Z,101495.41
2022-08-23T15:20:32.168Z,101497.28
2022-08-23T15:23:02.351Z,101500.19
2022-08-23T15:25:34.330Z,101495.91
2022-08-23T15:28:06.040Z,101499.78
2022-08-23T15:30:37.517Z,101515.38
2022-08-23T15:33:07.590Z,101514.59
2022-08-23T15:35:45.683Z,101518.47
2022-08-23T15:38:17.896Z,101521.28
2022-08-23T15:40:48.107Z,101525.00
2022-08-23T15:43:18.194Z,101521.44
2022-08-23T15:45:48.562Z,101527.03
2022-08-23T15:48:24.343Z,101523.69
2022-08-23T15:50:56.975Z,101520.34
2022-08-23T15:53:26.738Z,101518.75
2022-08-23T15:55:56.817Z,101517.91
2022-08-23T15:58:28.924Z,101529.63
2022-08-23T16:00:58.743Z,101529.66
2022-08-23T16:03:28.600Z,101522.53
2022-08-23T16:06:01.053Z,101526.19
2022-08-23T16:08:36.646Z,101526.38
2022-08-23T16:11:12.307Z,101525.59
2022-08-23T16:13:43.761Z,101529.34
2022-08-23T16:16:19.605Z,101540.31
2022-08-23T16:18:50.858Z,101539.78
2022-08-23T16:21:25.357Z,101537.38
2022-08-23T16:23:55.243Z,101534.91
2022-08-23T16:26:34.481Z,101532.50
2022-08-23T16:29:06.874Z,101526.41
2022-08-23T16:31:39.933Z,101528.34
2022-08-23T16:34:12.623Z,101524.88
2022-08-23T16:36:48.067Z,101524.16
2022-08-23T16:39:19.344Z,101517.97
2022-08-23T16:41:49.114Z,101521.63
2022-08-23T16:44:20.079Z,101518.06
2022-08-23T16:46:49.851Z,101518.94
2022-08-23T16:49:21.402Z,101515.38
2022-08-23T16:51:53.780Z,101518.03
2022-08-23T16:54:23.547Z,101519.91
2022-08-23T16:56:53.260Z,101519.94
2022-08-23T16:59:23.197Z,101519.06
2022-08-23T17:01:56.120Z,101517.31
2022-08-23T17:04:30.268Z,101527.28
2022-08-23T17:07:03.463Z,101520.22
2022-08-23T17:09:33.254Z,101524.78
2022-08-23T17:12:03.642Z,101529.38
2022-08-23T17:14:33.391Z,101528.56
2022-08-23T17:17:03.097Z,101531.25
2022-08-23T17:19:32.874Z,101521.38
2022-08-23T17:22:05.271Z,101518.69
2022-08-23T17:24:34.983Z,101523.25
2022-08-23T17:27:04.803Z,101528.69
2022-08-23T17:29:37.528Z,101526.97
2022-08-23T17:32:07.792Z,101528.84
2022-08-23T17:34:39.283Z,101528.06
2022-08-23T17:37:18.128Z,101529.09
2022-08-23T17:39:48.046Z,101538.06
2022-08-23T17:42:17.821Z,101542.56
2022-08-23T17:44:48.116Z,101540.75
2022-08-23T17:47:20.712Z,101549.78
2022-08-23T17:49:50.682Z,101548.94
2022-08-23T17:52:23.319Z,101548.97
2022-08-23T17:54:53.015Z,101548.13
2022-08-23T17:57:23.268Z,101556.22
2022-08-23T17:59:53.365Z,101562.50
2022-08-23T18:02:23.530Z,101558.91
2022-08-23T18:04:53.248Z,101564.34
2022-08-23T18:07:26.389Z,101567.91
2022-08-23T18:09:56.099Z,101565.31
2022-08-23T18:12:25.843Z,101557.31
2022-08-23T18:14:55.587Z,101569.09
2022-08-23T18:17:25.316Z,101566.53
2022-08-23T18:19:55.045Z,101566.63
2022-08-23T18:22:27.678Z,101569.38
2022-08-23T18:24:57.392Z,101575.72
2022-08-23T18:27:39.596Z,101576.66
2022-08-23T18:30:12.639Z,101581.16
2022-08-23T18:32:42.377Z,101585.59
2022-08-23T18:35:12.625Z,101589.16
2022-08-23T18:37:45.184Z,101585.56
2022-08-23T18:40:15.737Z,101589.13
2022-08-23T18:42:45.509Z,101594.50
2022-08-23T18:45:16.701Z,101590.06
2022-08-23T18:47:49.084Z,101599.94
2022-08-23T18:50:19.862Z,101594.59
2022-08-23T18:52:52.180Z,101601.78
2022-08-23T18:55:21.989Z,101598.16
2022-08-23T18:57:51.696Z,101597.28
2022-08-23T19:00:22.029Z,101603.56
2022-08-23T19:02:52.824Z,101605.34
2022-08-23T19:05:22.715Z,101612.53
2022-08-23T19:07:55.144Z,101608.94
2022-08-23T19:10:25.259Z,101614.31
2022-08-23T19:12:55.251Z,101617.88
2022-08-23T19:15:25.095Z,101609.88
2022-08-23T19:17:58.068Z,101617.09
2022-08-23T19:20:28.412Z,101624.28
2022-08-23T19:23:01.689Z,101628.81
2022-08-23T19:25:34.051Z,101644.97
2022-08-23T19:28:03.840Z,101639.69
2022-08-23T19:30:33.957Z,101643.28
2022-08-23T19:33:03.939Z,101636.16
2022-08-23T19:35:33.913Z,101637.94
2022-08-23T19:38:06.424Z,101636.19
2022-08-23T19:40:36.978Z,101636.22
2022-08-23T19:43:07.425Z,101636.25
2022-08-23T19:45:37.330Z,101639.88
2022-08-23T19:48:08.075Z,101638.97
2022-08-23T19:50:37.912Z,101644.38
2022-08-23T19:53:10.866Z,101646.19
2022-08-23T19:55:43.556Z,101652.47
2022-08-23T19:58:16.328Z,101647.13
2022-08-23T20:00:46.158Z,101656.94
2022-08-23T20:03:15.947Z,101651.53
2022-08-23T20:05:45.644Z,101658.72
2022-08-23T20:08:17.989Z,101651.53
2022-08-23T20:10:47.735Z,101652.44
2022-08-23T20:13:17.475Z,101657.81
2022-08-23T20:15:47.234Z,101656.94
2022-08-23T20:18:16.961Z,101665.91
2022-08-23T20:20:46.728Z,101659.69
2022-08-23T20:23:31.483Z,101664.19
2022-08-23T20:26:01.236Z,101665.09
2022-08-23T20:28:31.588Z,101665.09
2022-08-23T20:31:08.190Z,101665.09
2022-08-23T20:33:37.925Z,101671.34
2022-08-23T20:36:07.808Z,101665.97
2022-08-23T20:38:40.161Z,101668.66
2022-08-23T20:41:10.288Z,101674.03
2022-08-23T20:43:49.496Z,101668.66
2022-08-23T20:46:19.390Z,101674.94
2022-08-23T20:48:49.514Z,101671.41
2022-08-23T20:51:19.240Z,101677.66
2022-08-23T20:53:52.043Z,101675.84
2022-08-23T20:56:23.524Z,101683.94
2022-08-23T20:58:54.314Z,101684.88
2022-08-23T21:01:25.091Z,101681.28
2022-08-23T21:03:55.363Z,101675.91
2022-08-23T21:06:28.153Z,101683.09
2022-08-23T21:09:02.476Z,101680.44
2022-08-23T21:11:32.215Z,101688.50
2022-08-23T21:14:01.981Z,101690.34
2022-08-23T21:16:31.903Z,101685.00
2022-08-23T21:19:01.698Z,101693.06
2022-08-23T21:21:32.068Z,101693.06
2022-08-23T21:24:04.530Z,101692.19
2022-08-23T21:26:34.710Z,101687.69
2022-08-23T21:29:04.923Z,101690.38
2022-08-23T21:31:34.827Z,101690.38
2022-08-23T21:34:04.836Z,101682.31
2022-08-23T21:36:34.837Z,101681.41
2022-08-23T21:39:07.714Z,101686.78
2022-08-23T21:41:41.565Z,101693.06
2022-08-23T21:44:14.026Z,101687.72
2022-08-23T21:46:44.225Z,101687.72
2022-08-23T21:49:14.539Z,101679.66
2022-08-23T21:51:44.995Z,101681.47
2022-08-23T21:54:18.469Z,101691.31
2022-08-23T21:56:48.705Z,101686.84
2022-08-23T21:59:20.871Z,101683.31
2022-08-23T22:01:50.862Z,101673.47
2022-08-23T22:04:20.785Z,101668.13
2022-08-23T22:06:50.889Z,101669.91
2022-08-23T22:09:31.423Z,101664.53
2022-08-23T22:12:02.148Z,101675.28
2022-08-23T22:14:32.684Z,101675.28
2022-08-23T22:17:03.196Z,101683.31
2022-08-23T22:19:32.948Z,101670.81
2022-08-23T22:22:03.063Z,101665.44
2022-08-23T22:24:35.431Z,101664.56
2022-08-23T22:27:05.137Z,101665.44
2022-08-23T22:29:35.985Z,101674.38
2022-08-23T22:32:06.218Z,101665.44
2022-08-23T22:34:37.351Z,101673.53
2022-08-23T22:37:07.548Z,101662.81
2022-08-23T22:39:39.907Z,101665.50
2022-08-23T22:42:10.372Z,101659.25
2022-08-23T22:44:40.483Z,101658.34
2022-08-23T22:47:10.250Z,101664.59
2022-08-23T22:49:41.087Z,101664.59
2022-08-23T22:52:10.774Z,101659.25
2022-08-23T22:54:43.216Z,101658.34
2022-08-23T22:57:13.167Z,101661.06
2022-08-23T22:59:42.908Z,101655.69
2022-08-23T23:02:13.995Z,101652.13
2022-08-23T23:04:45.746Z,101654.78
2022-08-23T23:07:35.930Z,101659.31
2022-08-23T23:10:09.212Z,101654.84
2022-08-23T23:12:39.525Z,101655.72
2022-08-23T23:15:10.475Z,101654.81
2022-08-23T23:17:40.183Z,101658.41
2022-08-23T23:20:23.849Z,101671.81
2022-08-23T23:22:53.590Z,101670.91
2022-08-23T23:25:26.357Z,101671.81
2022-08-23T23:27:56.067Z,101676.31
2022-08-23T23:32:59.192Z,101669.16
2022-08-23T23:35:29.848Z,101665.63
2022-08-23T23:38:00.932Z,101657.56
2022-08-23T23:40:33.710Z,101668.31
2022-08-23T23:43:03.726Z,101667.44
2022-08-23T23:45:33.530Z,101666.53
2022-08-23T23:48:03.372Z,101668.31
2022-08-23T23:50:38.116Z,101660.25
2022-08-23T23:53:14.714Z,101662.06
2022-08-23T23:55:48.194Z,101656.72
2022-08-23T23:58:17.935Z,101658.50
